Time;durP1;ratioP1;P1;durP2;ratioP2;P2;SDS_P1;SDS_P2;PMS_P1;PMS_P2;Temp;Humidity;BMP_temperature;BMP_pressure;BME280_temperature;BME280_humidity;BME280_pressure;Samples;Min_cycle;Max_cycle;Signal;HPM_P1;HPM_P2
2022/01/27 00:03:21;;;;;;;3.58;2.92;;;;;;;4.77;45.06;99578.34;3365933;29;20104;-74
2022/01/27 00:05:20;;;;;;;3.47;2.30;;;;;;;4.74;44.99;99576.84;3365676;29;20049;-76
2022/01/27 00:07:01;;;;;;;3.08;2.78;;;;;;;4.77;44.89;99587.09;3365209;29;20048;-74
2022/01/27 00:08:48;;;;;;;3.65;2.60;;;;;;;4.78;44.99;99580.84;3364861;29;20051;-72
2022/01/27 00:12:09;;;;;;;2.88;2.25;;;;;;;4.80;44.95;99584.16;3365290;29;20044;-73
2022/01/27 00:14:00;;;;;;;5.57;2.83;;;;;;;4.79;44.97;99586.94;3364232;29;20048;-76
2022/01/27 00:15:41;;;;;;;3.22;2.80;;;;;;;4.80;45.02;99584.16;3364818;29;20127;-74
2022/01/27 00:17:28;;;;;;;2.30;1.65;;;;;;;4.84;45.06;99583.84;3365324;29;20052;-75
2022/01/27 00:19:13;;;;;;;5.05;2.53;;;;;;;4.82;45.08;99582.16;3366896;29;20049;-75
2022/01/27 00:20:54;;;;;;;4.32;2.13;;;;;;;4.82;44.99;99576.88;3367185;29;20113;-76
2022/01/27 00:22:34;;;;;;;4.68;2.08;;;;;;;4.82;44.88;99576.06;3368591;29;20500;-74
2022/01/27 00:24:15;;;;;;;2.10;1.90;;;;;;;4.84;44.99;99574.09;3367574;29;20088;-74
2022/01/27 00:25:56;;;;;;;2.63;1.60;;;;;;;4.86;44.98;99566.03;3366961;29;20527;-74
2022/01/27 00:27:37;;;;;;;2.50;2.15;;;;;;;4.90;44.92;99564.69;3367074;29;20290;-75
2022/01/27 00:29:17;;;;;;;3.20;2.13;;;;;;;4.90;44.89;99567.34;3365935;29;20040;-73
2022/01/27 00:30:58;;;;;;;2.25;2.05;;;;;;;4.91;44.94;99571.66;3365555;29;20469;-74
2022/01/27 00:32:39;;;;;;;2.55;1.98;;;;;;;4.88;44.97;99564.03;3366042;29;20049;-75
2022/01/27 00:34:20;;;;;;;3.25;1.90;;;;;;;4.89;44.79;99571.78;3363708;29;20059;-75
2022/01/27 00:36:00;;;;;;;3.35;2.00;;;;;;;4.88;44.83;99567.50;3364202;29;20518;-76
2022/01/27 00:37:41;;;;;;;4.93;1.85;;;;;;;4.86;44.97;99571.31;3364345;29;20044;-72
2022/01/27 00:39:22;;;;;;;3.25;1.85;;;;;;;4.87;44.67;99567.66;3363795;29;20045;-71
2022/01/27 00:41:03;;;;;;;3.97;1.75;;;;;;;4.86;44.75;99563.38;3364174;29;20150;-75
2022/01/27 00:42:45;;;;;;;3.03;1.77;;;;;;;4.88;44.71;99561.38;3364498;29;20075;-74
2022/01/27 00:44:25;;;;;;;6.28;1.90;;;;;;;4.88;44.82;99567.50;3364068;29;20045;-74
2022/01/27 00:46:12;;;;;;;3.63;2.10;;;;;;;4.86;44.68;99560.75;3364450;29;20460;-74
2022/01/27 00:47:52;;;;;;;3.10;1.77;;;;;;;4.85;44.73;99569.63;3364481;29;20045;-75
2022/01/27 00:49:36;;;;;;;6.90;2.20;;;;;;;4.83;44.77;99567.16;3364608;29;20045;-75
2022/01/27 00:51:21;;;;;;;5.28;2.03;;;;;;;4.83;44.64;99572.44;3363480;29;20097;-74
2022/01/27 00:53:06;;;;;;;4.05;1.40;;;;;;;4.82;44.69;99566.31;3364245;29;20254;-76
2022/01/27 00:54:46;;;;;;;2.35;2.17;;;;;;;4.84;44.67;99568.00;3363310;29;20048;-74
2022/01/27 00:59:59;;;;;;;2.20;2.00;;;;;;;4.86;44.66;99571.31;3364139;29;20049;-75
2022/01/27 01:01:43;;;;;;;2.47;2.10;;;;;;;4.85;44.69;99565.16;3364346;29;20500;-74
2022/01/27 01:03:30;;;;;;;3.05;1.75;;;;;;;4.84;44.79;99560.06;3363929;29;20071;-73
2022/01/27 01:07:11;;;;;;;2.45;2.25;;;;;;;4.83;44.61;99553.97;3364082;29;20123;-73
2022/01/27 01:16:17;;;;;;;1.83;1.73;;;;;;;4.72;44.42;99549.78;3364179;29;20725;-73
2022/01/27 01:19:45;;;;;;;1.98;1.65;;;;;;;4.64;44.45;99549.75;3360374;29;20540;-75
2022/01/27 01:21:48;;;;;;;2.35;1.92;;;;;;;4.63;44.29;99549.94;3363794;29;20044;-74
2022/01/27 01:29:29;;;;;;;3.45;2.17;;;;;;;4.55;44.40;99553.38;3363639;29;20505;-78
2022/01/27 01:31:30;;;;;;;3.00;1.67;;;;;;;4.53;44.45;99553.53;3363518;29;20051;-75
2022/01/27 01:33:14;;;;;;;1.70;1.23;;;;;;;4.49;44.24;99551.34;3363933;29;20238;-76
2022/01/27 01:34:55;;;;;;;4.32;2.38;;;;;;;4.45;44.32;99556.13;3363759;29;20049;-77
2022/01/27 01:36:38;;;;;;;3.60;2.25;;;;;;;4.43;44.26;99560.75;3363760;29;20122;-73
2022/01/27 01:38:21;;;;;;;1.88;1.65;;;;;;;4.42;44.26;99553.00;3363691;29;20053;-73
2022/01/27 01:40:01;;;;;;;2.50;2.03;;;;;;;4.42;44.25;99553.81;3364069;29;20040;-74
2022/01/27 01:41:42;;;;;;;3.50;1.73;;;;;;;4.43;44.46;99544.09;3363711;29;20052;-74
2022/01/27 01:43:24;;;;;;;1.83;1.50;;;;;;;4.43;44.41;99547.53;3362576;29;20129;-75
2022/01/27 01:45:10;;;;;;;2.28;2.08;;;;;;;4.45;44.32;99553.50;3363498;29;20132;-76
2022/01/27 01:46:52;;;;;;;2.33;1.70;;;;;;;4.45;44.50;99550.03;3363487;29;20460;-75
2022/01/27 01:48:33;;;;;;;1.67;1.58;;;;;;;4.46;44.33;99546.41;3363830;29;20041;-73
2022/01/27 01:50:15;;;;;;;2.20;2.00;;;;;;;4.46;44.50;99538.47;3363616;29;20047;-75
2022/01/27 01:51:56;;;;;;;;;;;;;;;4.57;44.60;99541.69;3363688;29;20076;-75
2022/01/27 01:53:37;;;;;;;3.38;2.28;;;;;;;4.51;44.08;99537.00;3363063;29;19923;-74
2022/01/27 01:55:18;;;;;;;5.22;3.15;;;;;;;4.51;44.39;99546.75;3363138;29;20184;-74
2022/01/27 01:56:59;;;;;;;2.58;2.20;;;;;;;4.51;44.41;99539.66;3363390;29;20560;-75
2022/01/27 01:58:40;;;;;;;3.92;2.78;;;;;;;4.51;44.51;99546.75;3362287;29;20052;-73
2022/01/27 02:00:25;;;;;;;2.72;2.00;;;;;;;4.48;44.63;99539.97;3360236;29;20049;-76
2022/01/27 02:02:06;;;;;;;;;;;;;;;4.59;44.49;99534.44;3363060;29;20073;-75
2022/01/27 02:03:47;;;;;;;4.53;2.78;;;;;;;4.49;44.60;99524.97;3363160;29;19916;-74
2022/01/27 02:05:33;;;;;;;2.10;1.88;;;;;;;4.45;44.41;99524.47;3362731;29;20041;-73
2022/01/27 02:07:49;;;;;;;2.90;2.63;;;;;;;4.44;44.58;99524.63;3363129;29;20049;-74
2022/01/27 02:19:14;;;;;;;4.75;2.38;;;;;;;4.50;44.27;99529.28;3363319;29;20696;-74
2022/01/27 02:20:55;;;;;;;3.42;2.20;;;;;;;4.52;44.29;99522.03;3363135;29;20056;-74
2022/01/27 02:22:36;;;;;;;2.38;1.70;;;;;;;4.54;44.20;99522.69;3362910;29;20505;-74
2022/01/27 02:24:17;;;;;;;3.65;2.85;;;;;;;4.54;44.31;99523.53;3362993;29;20057;-75
2022/01/27 02:25:58;;;;;;;3.50;2.00;;;;;;;4.56;44.30;99524.16;3363033;29;20045;-76
2022/01/27 02:27:38;;;;;;;3.25;2.00;;;;;;;4.56;44.21;99526.81;3363172;29;20052;-74
2022/01/27 02:29:20;;;;;;;3.28;1.88;;;;;;;4.58;44.10;99539.84;3363321;29;20036;-74
2022/01/27 02:31:01;;;;;;;2.63;1.77;;;;;;;4.59;43.94;99528.31;3363141;29;20081;-75
2022/01/27 02:32:42;;;;;;;6.45;2.38;;;;;;;4.62;44.02;99528.00;3363135;29;20108;-74
2022/01/27 02:34:23;;;;;;;3.13;1.88;;;;;;;4.65;43.94;99527.69;3362965;29;20400;-74
2022/01/27 02:36:04;;;;;;;3.13;1.80;;;;;;;4.68;43.89;99526.53;3363177;29;20061;-73
2022/01/27 02:37:45;;;;;;;2.20;2.00;;;;;;;4.72;43.89;99531.31;3363288;29;20453;-74
2022/01/27 02:39:27;;;;;;;4.55;2.67;;;;;;;4.72;43.77;99538.41;3362806;29;20052;-74
2022/01/27 02:41:07;;;;;;;4.53;1.92;;;;;;;4.67;43.60;99525.69;3362988;29;20497;-74
2022/01/27 02:42:48;;;;;;;5.75;1.92;;;;;;;4.62;43.71;99530.66;3363152;29;20144;-75
2022/01/27 02:44:31;;;;;;;4.93;2.20;;;;;;;4.57;43.38;99528.47;3362790;29;20053;-74
2022/01/27 02:46:21;;;;;;;1.83;1.67;;;;;;;4.55;43.13;99529.63;3363060;29;20068;-75
2022/01/27 02:48:02;;;;;;;2.47;1.33;;;;;;;4.49;42.89;99522.31;3363196;29;20052;-74
2022/01/27 02:49:43;;;;;;;1.92;1.52;;;;;;;4.46;42.72;99527.94;3363274;29;20097;-74
2022/01/27 02:51:24;;;;;;;1.83;1.45;;;;;;;4.43;42.85;99523.78;3362750;29;20056;-75
2022/01/27 02:53:06;;;;;;;1.35;1.10;;;;;;;4.40;42.75;99523.28;3362297;29;20096;-75
2022/01/27 02:54:47;;;;;;;2.35;1.33;;;;;;;4.37;42.58;99525.25;3362910;29;20068;-74
2022/01/27 02:56:28;;;;;;;1.35;1.25;;;;;;;4.32;42.63;99524.91;3362757;29;20105;-73
2022/01/27 02:58:10;;;;;;;1.80;1.20;;;;;;;4.32;42.71;99529.38;3362951;29;20048;-74
2022/01/27 02:59:51;;;;;;;1.45;1.33;;;;;;;4.32;42.64;99530.19;3362589;29;20060;-74
2022/01/27 03:01:32;;;;;;;1.30;1.20;;;;;;;4.37;42.84;99519.97;3362850;29;20045;-75
2022/01/27 03:03:12;;;;;;;1.67;1.45;;;;;;;4.42;42.64;99526.59;3362777;29;20037;-75
2022/01/27 03:04:53;;;;;;;1.83;1.33;;;;;;;4.46;42.63;99525.28;3362595;29;20044;-75
2022/01/27 03:06:33;;;;;;;3.47;1.52;;;;;;;4.47;42.81;99527.78;3363067;29;20417;-76
2022/01/27 03:08:14;;;;;;;2.08;1.17;;;;;;;4.47;42.76;99525.13;3362795;29;20045;-74
2022/01/27 03:09:55;;;;;;;1.08;1.00;;;;;;;4.47;42.61;99508.50;3362678;29;20105;-75
2022/01/27 03:11:50;;;;;;;1.52;1.40;;;;;;;4.51;42.46;99520.34;3362820;29;20060;-74
2022/01/27 03:13:32;;;;;;;1.33;1.10;;;;;;;4.52;42.44;99520.22;3362594;29;20072;-75
2022/01/27 03:15:13;;;;;;;2.33;1.45;;;;;;;4.57;42.51;99514.47;3362705;29;20045;-74
2022/01/27 03:16:57;;;;;;;2.35;1.63;;;;;;;4.58;42.55;99526.66;3362530;29;20197;-75
2022/01/27 03:18:38;;;;;;;2.17;1.40;;;;;;;4.54;42.57;99523.53;3362613;29;20052;-76
2022/01/27 03:20:19;;;;;;;2.47;1.33;;;;;;;4.52;42.25;99522.03;3348704;29;20042;-75
2022/01/27 03:22:02;;;;;;;2.45;1.70;;;;;;;4.49;42.53;99523.19;3359709;29;20526;-74
2022/01/27 03:23:43;;;;;;;3.42;1.42;;;;;;;4.48;42.42;99523.31;3361260;29;20084;-74
2022/01/27 03:25:24;;;;;;;1.42;1.02;;;;;;;4.47;42.64;99513.75;3362496;29;20671;-75
2022/01/27 03:27:13;;;;;;;1.38;1.10;;;;;;;4.47;42.52;99522.50;3362632;29;20044;-75
2022/01/27 03:28:54;;;;;;;2.75;1.42;;;;;;;4.47;42.31;99516.41;3362408;29;20045;-74
2022/01/27 03:30:35;;;;;;;2.63;1.27;;;;;;;4.44;42.41;99520.19;3362692;29;20052;-76
2022/01/27 03:32:16;;;;;;;2.05;1.45;;;;;;;4.42;42.39;99518.69;3362635;29;20075;-75
2022/01/27 03:33:56;;;;;;;3.10;1.45;;;;;;;4.34;42.40;99520.31;3362536;29;20056;-75
2022/01/27 03:35:37;;;;;;;2.03;1.15;;;;;;;4.37;42.46;99530.53;3362707;29;20047;-76
2022/01/27 03:37:18;;;;;;;2.38;1.95;;;;;;;4.37;42.57;99522.63;3362904;29;20037;-76
2022/01/27 03:38:59;;;;;;;2.20;1.27;;;;;;;4.35;42.27;99521.13;3362380;29;20053;-76
2022/01/27 03:40:39;;;;;;;1.65;1.55;;;;;;;4.29;42.11;99516.50;3361853;29;20041;-75
2022/01/27 03:42:20;;;;;;;2.75;1.30;;;;;;;4.25;42.30;99515.16;3361963;29;20048;-76
2022/01/27 03:44:01;;;;;;;2.17;1.30;;;;;;;4.23;42.14;99509.19;3362521;29;20048;-76
2022/01/27 03:45:42;;;;;;;1.45;1.13;;;;;;;4.25;42.16;99499.31;3362342;29;20413;-76
2022/01/27 03:47:22;;;;;;;1.83;1.25;;;;;;;4.27;42.35;99506.09;3362614;29;20049;-77
2022/01/27 03:49:03;;;;;;;1.27;1.00;;;;;;;4.30;42.46;99502.31;3362539;29;20420;-74
2022/01/27 03:50:44;;;;;;;1.58;0.95;;;;;;;4.34;42.42;99501.03;3362782;29;20476;-76
2022/01/27 03:52:24;;;;;;;1.85;1.10;;;;;;;4.37;42.42;99503.34;3362709;29;20514;-76
2022/01/27 03:54:05;;;;;;;0.82;0.82;;;;;;;4.38;42.47;99499.69;3362589;29;20511;-76
2022/01/27 03:55:46;;;;;;;1.60;1.00;;;;;;;4.40;42.52;99496.91;3362589;29;20536;-75
2022/01/27 03:57:26;;;;;;;1.35;1.08;;;;;;;4.41;42.50;99501.19;3362697;29;20072;-74
2022/01/27 03:59:07;;;;;;;1.13;1.02;;;;;;;4.44;42.55;99498.22;3362526;29;20048;-76
2022/01/27 04:00:48;;;;;;;1.80;1.40;;;;;;;4.45;42.66;99500.72;3362610;29;20041;-76
2022/01/27 04:02:29;;;;;;;2.10;1.38;;;;;;;4.48;42.58;99502.22;3362186;29;20479;-75
2022/01/27 04:04:10;;;;;;;4.32;1.70;;;;;;;4.50;42.60;99500.25;3362340;29;20560;-74
2022/01/27 04:05:55;;;;;;;2.58;1.60;;;;;;;4.50;42.51;99498.44;3361298;29;20132;-77
2022/01/27 04:07:36;;;;;;;1.55;1.30;;;;;;;4.51;42.44;99488.69;3348580;29;20041;-77
2022/01/27 04:09:17;;;;;;;2.72;1.35;;;;;;;4.50;42.48;99495.78;3359623;29;20080;-77
2022/01/27 04:10:58;;;;;;;2.60;1.55;;;;;;;4.52;42.45;99495.66;3360833;29;20036;-76
2022/01/27 04:12:38;;;;;;;3.30;2.25;;;;;;;4.54;42.51;99494.50;3361940;29;20136;-76
2022/01/27 04:14:19;;;;;;;2.58;2.20;;;;;;;4.54;42.44;99496.28;3362142;29;20505;-76
2022/01/27 04:16:00;;;;;;;2.17;1.80;;;;;;;4.50;42.45;99492.31;3363018;29;20045;-77
2022/01/27 04:17:41;;;;;;;2.80;2.07;;;;;;;4.49;42.46;99498.56;3364704;29;20053;-76
2022/01/27 04:19:22;;;;;;;3.40;1.88;;;;;;;4.46;42.33;99497.09;3364745;29;20297;-74
2022/01/27 04:21:02;;;;;;;2.65;1.60;;;;;;;4.45;42.61;99494.63;3364622;29;20049;-76
2022/01/27 04:22:43;;;;;;;2.22;1.95;;;;;;;4.44;42.39;99499.06;3364930;29;20047;-76
2022/01/27 04:24:24;;;;;;;1.83;1.63;;;;;;;4.46;42.39;99493.63;3364087;29;20061;-75
2022/01/27 04:26:05;;;;;;;1.52;1.42;;;;;;;4.42;42.46;99490.50;3364885;29;20519;-76
2022/01/27 04:27:53;;;;;;;1.70;1.60;;;;;;;4.36;42.48;99491.97;3364981;29;20048;-75
2022/01/27 04:29:37;;;;;;;2.88;1.60;;;;;;;4.34;42.61;99491.28;3364520;29;20045;-75
2022/01/27 04:31:19;;;;;;;3.05;1.90;;;;;;;4.32;42.40;99487.97;3364344;29;20409;-73
2022/01/27 04:33:02;;;;;;;3.33;2.17;;;;;;;4.28;42.47;99484.00;3364400;29;20412;-75
2022/01/27 04:34:42;;;;;;;4.15;1.95;;;;;;;4.25;42.40;99475.56;3364675;29;20110;-76
2022/01/27 04:36:29;;;;;;;2.50;2.10;;;;;;;4.23;42.45;99474.91;3363607;29;20097;-78
2022/01/27 04:40:12;;;;;;;4.28;2.95;;;;;;;4.14;42.21;99472.25;3364527;29;20053;-76
2022/01/27 04:42:00;;;;;;;5.05;2.92;;;;;;;4.18;42.58;99477.19;3350078;29;20037;-75
2022/01/27 04:45:26;;;;;;;4.45;2.60;;;;;;;4.11;42.63;99477.00;3364532;29;20037;-78
2022/01/27 04:47:13;;;;;;;5.38;2.90;;;;;;;4.11;42.68;99469.94;3363509;29;20547;-75
2022/01/27 04:48:59;;;;;;;8.73;3.00;;;;;;;4.07;42.65;99471.22;3364117;29;20072;-71
2022/01/27 04:50:41;;;;;;;5.55;4.03;;;;;;;4.08;42.35;99469.41;3364561;29;20128;-74
2022/01/27 04:52:22;;;;;;;5.85;2.88;;;;;;;4.04;42.55;99470.72;3364171;29;20040;-74
2022/01/27 04:54:54;;;;;;;4.75;2.75;;;;;;;3.99;42.79;99473.00;3364288;29;20045;-72
2022/01/27 04:56:11;;;;;;;5.53;2.70;;;;;;;3.93;42.63;99477.91;3366358;29;20049;-72
2022/01/27 04:58:07;;;;;;;4.50;2.38;;;;;;;3.90;42.63;99477.41;3364328;29;20060;-75
2022/01/27 04:59:48;;;;;;;2.85;1.95;;;;;;;3.89;42.86;99466.00;3364652;29;20076;-74
2022/01/27 05:01:43;;;;;;;3.97;1.63;;;;;;;3.89;42.89;99476.56;3364508;29;20438;-75
2022/01/27 05:03:35;;;;;;;4.25;2.38;;;;;;;3.87;42.72;99480.34;3364278;29;20161;-74
2022/01/27 05:05:15;;;;;;;2.63;2.03;;;;;;;3.86;42.90;99471.59;3364296;29;20053;-74
2022/01/27 05:06:56;;;;;;;4.93;2.53;;;;;;;3.84;43.02;99484.13;3364512;29;20109;-73
2022/01/27 05:08:37;;;;;;;3.42;2.00;;;;;;;3.83;43.07;99477.19;3363446;29;20071;-74
2022/01/27 05:10:21;;;;;;;3.72;2.03;;;;;;;3.84;43.25;99478.84;3364211;29;20043;-74
2022/01/27 05:12:20;;;;;;;6.82;2.03;;;;;;;3.85;43.02;99477.88;3363820;29;20037;-73
2022/01/27 05:14:12;;;;;;;3.10;2.05;;;;;;;3.90;43.29;99474.78;3363699;29;20049;-74
2022/01/27 05:15:53;;;;;;;7.93;2.00;;;;;;;3.92;43.08;99470.16;3363308;29;20053;-75
2022/01/27 05:17:34;;;;;;;3.25;1.80;;;;;;;3.97;43.05;99477.59;3364504;29;20052;-73
2022/01/27 05:19:24;;;;;;;2.00;1.40;;;;;;;3.97;42.94;99475.78;3363935;29;20101;-73
2022/01/27 05:21:04;;;;;;;3.25;1.90;;;;;;;3.97;42.90;99469.69;3364887;29;20053;-74
2022/01/27 05:22:45;;;;;;;4.88;1.67;;;;;;;3.97;42.69;99482.88;3364759;29;20048;-78
2022/01/27 05:24:26;;;;;;;2.58;1.50;;;;;;;3.96;43.00;99478.59;3363224;29;20060;-76
2022/01/27 05:26:06;;;;;;;2.20;1.58;;;;;;;3.97;43.24;99480.22;3360843;29;20084;-76
2022/01/27 05:27:47;;;;;;;1.85;1.10;;;;;;;3.94;43.04;99476.09;3359805;29;20109;-76
2022/01/27 05:29:28;;;;;;;2.05;1.23;;;;;;;3.96;42.99;99489.13;3363842;29;20049;-74
2022/01/27 05:31:08;;;;;;;2.22;1.33;;;;;;;3.94;43.09;99484.81;3364156;29;20412;-75
2022/01/27 05:32:49;;;;;;;1.52;1.42;;;;;;;3.93;43.17;99483.19;3364163;29;20037;-75
2022/01/27 05:34:30;;;;;;;1.38;1.20;;;;;;;3.92;43.10;99478.06;3364028;29;20084;-76
2022/01/27 05:36:10;;;;;;;2.95;1.60;;;;;;;3.96;43.08;99473.31;3363983;29;20079;-76
2022/01/27 05:37:51;;;;;;;2.20;1.08;;;;;;;3.96;43.23;99473.31;3363928;29;20386;-74
2022/01/27 05:39:32;;;;;;;6.10;1.25;;;;;;;3.95;42.93;99475.13;3364247;29;20045;-82
2022/01/27 05:41:16;;;;;;;1.98;1.77;;;;;;;3.93;43.14;99477.09;3364308;29;20423;-79
2022/01/27 05:42:56;;;;;;;2.13;1.25;;;;;;;3.92;43.16;99476.28;3363504;29;20060;-77
2022/01/27 05:44:37;;;;;;;3.00;1.20;;;;;;;3.92;43.15;99464.88;3364063;29;20416;-79
2022/01/27 05:46:18;;;;;;;2.20;1.50;;;;;;;3.96;42.72;99475.94;3364602;29;20165;-83
2022/01/27 05:47:58;;;;;;;2.55;1.38;;;;;;;3.97;43.02;99474.97;3364064;29;20113;-76
2022/01/27 05:49:39;;;;;;;8.48;1.58;;;;;;;3.96;43.18;99475.94;3362808;29;20104;-74
2022/01/27 05:51:20;;;;;;;3.00;1.38;;;;;;;3.92;42.91;99481.53;3363581;29;20131;-76
2022/01/27 05:53:00;;;;;;;2.55;1.85;;;;;;;3.93;43.07;99483.19;3363549;29;20047;-75
2022/01/27 05:54:42;;;;;;;2.72;1.65;;;;;;;3.91;42.92;99477.25;3362685;29;20120;-75
2022/01/27 05:56:23;;;;;;;2.13;1.42;;;;;;;3.93;42.91;99474.47;3363171;29;20041;-77
2022/01/27 05:58:03;;;;;;;8.85;1.40;;;;;;;3.93;42.83;99474.47;3363427;29;20495;-75
2022/01/27 05:59:44;;;;;;;3.78;1.58;;;;;;;3.94;42.84;99469.00;3363865;29;20102;-75
2022/01/27 06:01:25;;;;;;;2.10;1.02;;;;;;;3.99;42.68;99470.34;3363376;29;20049;-76
2022/01/27 06:03:06;;;;;;;1.83;1.10;;;;;;;3.99;42.59;99467.72;3363260;29;20053;-75
2022/01/27 06:04:46;;;;;;;1.33;0.98;;;;;;;3.97;42.76;99469.69;3362752;29;20075;-74
2022/01/27 06:06:27;;;;;;;4.25;2.03;;;;;;;3.94;42.60;99469.00;3363272;29;20115;-74
2022/01/27 06:08:08;;;;;;;1.75;1.30;;;;;;;3.89;42.73;99460.75;3363980;29;20488;-76
2022/01/27 06:09:50;;;;;;;3.25;1.50;;;;;;;3.86;42.35;99461.06;3364137;29;20048;-75
2022/01/27 06:11:30;;;;;;;1.40;0.98;;;;;;;3.83;42.39;99458.75;3363480;29;20048;-77
2022/01/27 06:13:11;;;;;;;2.05;1.33;;;;;;;3.82;42.43;99459.75;3363248;29;20181;-75
2022/01/27 06:14:52;;;;;;;1.20;1.10;;;;;;;3.82;42.38;99462.38;3363626;29;20509;-75
2022/01/27 06:16:32;;;;;;;3.35;1.00;;;;;;;3.77;42.53;99448.84;3363451;29;20428;-75
2022/01/27 06:18:13;;;;;;;1.55;1.10;;;;;;;3.76;42.33;99447.16;3363982;29;20056;-78
2022/01/27 06:19:55;;;;;;;3.83;1.35;;;;;;;3.76;42.23;99452.44;3362085;29;20045;-77
2022/01/27 06:21:36;;;;;;;2.13;1.05;;;;;;;3.75;42.06;99445.53;3363168;29;20500;-77
2022/01/27 06:23:17;;;;;;;2.60;1.00;;;;;;;3.75;42.12;99444.72;3362896;29;20041;-76
2022/01/27 06:24:57;;;;;;;3.28;1.25;;;;;;;3.73;42.14;99442.22;3362906;29;20449;-75
2022/01/27 06:26:38;;;;;;;3.17;1.50;;;;;;;3.72;42.15;99446.66;3362030;29;20040;-75
2022/01/27 06:28:19;;;;;;;1.77;1.40;;;;;;;3.68;41.94;99442.69;3359496;29;20131;-78
2022/01/27 06:30:00;;;;;;;4.75;1.27;;;;;;;3.64;41.93;99445.78;3362746;29;20128;-75
2022/01/27 06:31:41;;;;;;;2.38;1.25;;;;;;;3.60;42.22;99444.44;3363070;29;20041;-76
2022/01/27 06:33:22;;;;;;;1.95;1.00;;;;;;;3.57;42.12;99447.41;3363349;29;20045;-76
2022/01/27 06:35:03;;;;;;;1.58;1.05;;;;;;;3.54;42.04;99452.97;3363309;29;20037;-76
2022/01/27 06:36:44;;;;;;;1.13;0.90;;;;;;;3.52;42.16;99455.78;3363248;29;20116;-77
2022/01/27 06:38:25;;;;;;;1.05;0.90;;;;;;;3.49;42.09;99446.38;3361770;29;20045;-76
2022/01/27 06:40:06;;;;;;;1.52;1.33;;;;;;;3.46;42.19;99441.41;3362708;29;20057;-77
2022/01/27 06:41:47;;;;;;;2.50;1.10;;;;;;;3.46;42.14;99436.16;3362365;29;20520;-76
2022/01/27 06:43:28;;;;;;;2.65;1.20;;;;;;;3.45;42.31;99434.47;3363453;29;20048;-75
2022/01/27 06:45:09;;;;;;;1.60;0.98;;;;;;;3.46;42.10;99441.41;3363702;29;20445;-76
2022/01/27 06:46:50;;;;;;;1.30;1.20;;;;;;;3.47;42.09;99450.97;3363632;29;20096;-77
2022/01/27 06:48:31;;;;;;;1.10;1.00;;;;;;;3.44;41.96;99443.38;3364150;29;20045;-76
2022/01/27 06:50:11;;;;;;;1.88;1.00;;;;;;;3.44;41.98;99438.09;3366324;29;20132;-77
2022/01/27 06:51:52;;;;;;;2.30;1.17;;;;;;;3.45;42.08;99434.47;3366848;29;20444;-75
2022/01/27 06:53:33;;;;;;;1.50;0.90;;;;;;;3.46;42.05;99430.88;3366947;29;20520;-75
2022/01/27 06:55:17;;;;;;;3.15;1.13;;;;;;;3.48;42.14;99450.00;3363658;29;20416;-77
2022/01/27 06:56:58;;;;;;;2.00;1.25;;;;;;;3.47;42.16;99444.88;3362937;29;20049;-76
2022/01/27 06:58:38;;;;;;;1.40;1.05;;;;;;;3.48;42.10;99443.88;3362727;29;20088;-76
2022/01/27 07:00:19;;;;;;;1.17;0.70;;;;;;;3.50;41.95;99442.75;3363032;29;20080;-76
2022/01/27 07:02:00;;;;;;;1.23;0.95;;;;;;;3.52;42.08;99436.50;3362745;29;20053;-76
2022/01/27 07:03:40;;;;;;;1.10;1.00;;;;;;;3.51;41.83;99438.28;3361865;29;20077;-77
2022/01/27 07:05:21;;;;;;;2.58;1.13;;;;;;;3.47;41.91;99443.06;3362590;29;20397;-75
2022/01/27 07:07:02;;;;;;;1.08;0.98;;;;;;;3.42;41.90;99442.69;3363188;29;20052;-76
2022/01/27 07:08:43;;;;;;;1.25;1.00;;;;;;;3.36;41.73;99443.31;3362938;29;20044;-77
2022/01/27 07:10:24;;;;;;;0.95;0.88;;;;;;;3.31;41.69;99442.94;3363044;29;20453;-77
2022/01/27 07:12:05;;;;;;;1.38;0.90;;;;;;;3.27;41.59;99449.50;3362445;29;20044;-77
2022/01/27 07:13:46;;;;;;;1.13;1.02;;;;;;;3.21;41.62;99435.13;3362459;29;20064;-76
2022/01/27 07:15:28;;;;;;;0.98;0.82;;;;;;;3.19;41.48;99460.78;3362673;29;20045;-77
2022/01/27 07:17:09;;;;;;;1.92;1.10;;;;;;;3.19;41.49;99445.00;3362758;29;20068;-77
2022/01/27 07:18:52;;;;;;;0.90;0.90;;;;;;;3.19;41.63;99446.81;3362755;29;20423;-76
2022/01/27 07:20:32;;;;;;;1.88;1.10;;;;;;;3.21;41.50;99448.31;3362317;29;20044;-75
2022/01/27 07:22:13;;;;;;;2.25;1.17;;;;;;;3.24;41.96;99452.44;3362484;29;20140;-79
2022/01/27 07:23:54;;;;;;;1.67;1.00;;;;;;;3.28;41.67;99456.44;3361457;29;20543;-76
2022/01/27 07:25:35;;;;;;;1.92;1.10;;;;;;;3.30;41.53;99451.81;3362552;29;20125;-77
2022/01/27 07:27:17;;;;;;;1.40;1.27;;;;;;;3.33;41.46;99458.59;3362671;29;20088;-77
2022/01/27 07:28:58;;;;;;;1.70;1.45;;;;;;;3.34;41.87;99455.81;3362745;29;20512;-77
2022/01/27 07:30:38;;;;;;;2.95;1.08;;;;;;;3.35;41.67;99460.09;3362533;29;20083;-77
2022/01/27 07:32:19;;;;;;;1.92;1.50;;;;;;;3.34;41.53;99453.19;3362801;29;20045;-75
2022/01/27 07:33:59;;;;;;;2.40;1.30;;;;;;;3.32;41.67;99449.88;3362575;29;20049;-78
2022/01/27 07:35:41;;;;;;;1.60;1.45;;;;;;;3.33;41.87;99448.91;3362406;29;20120;-76
2022/01/27 07:37:21;;;;;;;1.73;0.90;;;;;;;3.34;41.96;99447.09;3362705;29;20087;-77
2022/01/27 07:39:03;;;;;;;3.45;1.08;;;;;;;3.38;41.97;99456.31;3361720;29;20485;-77
2022/01/27 07:40:44;;;;;;;1.50;1.40;;;;;;;3.42;41.80;99455.88;3362365;29;20205;-76
2022/01/27 07:42:24;;;;;;;1.80;1.23;;;;;;;3.46;42.09;99451.94;3362503;29;20465;-77
2022/01/27 07:44:05;;;;;;;2.05;1.50;;;;;;;3.46;41.84;99444.03;3362631;29;20125;-76
2022/01/27 07:45:46;;;;;;;1.77;1.30;;;;;;;3.52;41.99;99449.69;3362843;29;20465;-76
2022/01/27 07:47:26;;;;;;;2.50;1.70;;;;;;;3.56;42.04;99440.47;3362591;29;20161;-80
2022/01/27 07:49:07;;;;;;;2.22;1.20;;;;;;;3.60;41.90;99444.44;3362477;29;20045;-76
2022/01/27 07:50:48;;;;;;;1.67;1.57;;;;;;;3.64;42.16;99437.88;3363334;29;20630;-79
2022/01/27 07:52:29;;;;;;;2.58;1.55;;;;;;;3.66;42.08;99447.28;3365462;29;20346;-77
2022/01/27 07:54:10;;;;;;;3.33;1.80;;;;;;;3.69;42.01;99440.88;3364197;29;20497;-77
2022/01/27 07:55:51;;;;;;;1.83;1.48;;;;;;;3.67;42.07;99435.78;3364898;29;20235;-77
2022/01/27 07:57:31;;;;;;;3.92;1.58;;;;;;;3.66;42.04;99435.91;3365459;29;20185;-79
2022/01/27 07:59:12;;;;;;;3.47;1.52;;;;;;;3.65;41.91;99440.38;3364870;29;20072;-76
2022/01/27 08:00:53;;;;;;;3.83;1.60;;;;;;;3.64;42.04;99449.25;3364841;29;20052;-78
2022/01/27 08:02:34;;;;;;;2.33;1.10;;;;;;;3.61;41.74;99446.91;3365297;29;20089;-78
2022/01/27 08:04:14;;;;;;;2.92;1.88;;;;;;;3.57;41.75;99445.59;3365359;29;20044;-78
2022/01/27 08:05:55;;;;;;;1.98;1.75;;;;;;;3.55;41.77;99444.91;3364119;29;20041;-78
2022/01/27 08:07:36;;;;;;;1.75;1.52;;;;;;;3.53;41.59;99430.25;3364978;29;20096;-77
2022/01/27 08:09:17;;;;;;;1.38;1.20;;;;;;;3.48;41.67;99444.72;3365219;29;20061;-79
2022/01/27 08:10:58;;;;;;;1.67;1.58;;;;;;;3.42;41.89;99440.06;3364679;29;20567;-77
2022/01/27 08:12:43;;;;;;;1.88;1.50;;;;;;;3.34;41.49;99434.75;3363887;29;20045;-79
2022/01/27 08:14:23;;;;;;;2.55;1.52;;;;;;;3.35;41.27;99427.66;3364128;29;20077;-78
2022/01/27 08:16:04;;;;;;;3.17;1.50;;;;;;;3.39;41.35;99421.94;3364222;29;20069;-78
2022/01/27 08:17:48;;;;;;;3.17;1.45;;;;;;;3.47;41.07;99414.06;3364817;29;20076;-80
2022/01/27 08:19:29;;;;;;;4.43;2.00;;;;;;;3.58;41.18;99426.16;3365062;29;20412;-79
2022/01/27 08:21:10;;;;;;;1.33;1.23;;;;;;;3.61;41.18;99417.09;3365076;29;20045;-76
2022/01/27 08:22:52;;;;;;;3.38;1.92;;;;;;;3.63;41.14;99426.50;3365137;29;20041;-78
2022/01/27 08:24:33;;;;;;;2.33;1.48;;;;;;;3.61;40.99;99411.84;3364739;29;20057;-76
2022/01/27 08:26:26;;;;;;;2.85;1.80;;;;;;;3.58;40.97;99417.44;3365104;29;20060;-77
2022/01/27 08:28:18;;;;;;;2.28;1.63;;;;;;;3.60;41.19;99418.09;3364824;29;20069;-75
2022/01/27 08:30:03;;;;;;;3.30;1.98;;;;;;;3.62;40.92;99416.97;3364637;29;20178;-77
2022/01/27 08:32:02;;;;;;;10.15;1.85;;;;;;;3.65;41.03;99415.81;3364870;29;20087;-78
2022/01/27 08:33:43;;;;;;;6.85;1.85;;;;;;;3.69;40.72;99412.72;3363483;29;20472;-77
2022/01/27 08:35:25;;;;;;;2.65;1.65;;;;;;;3.75;40.92;99421.81;3364209;29;20048;-78
2022/01/27 08:37:21;;;;;;;3.83;1.63;;;;;;;3.82;41.01;99414.94;3364732;29;20063;-78
2022/01/27 08:39:01;;;;;;;2.70;1.52;;;;;;;3.93;40.71;99409.38;3364599;29;20045;-77
2022/01/27 08:40:42;;;;;;;2.67;1.88;;;;;;;4.03;40.64;99411.06;3364759;29;20052;-77
2022/01/27 08:42:23;;;;;;;2.95;1.75;;;;;;;4.13;40.57;99412.59;3364519;29;20067;-77
2022/01/27 08:44:04;;;;;;;1.95;1.85;;;;;;;4.19;40.45;99395.28;3364914;29;20036;-75
2022/01/27 08:45:46;;;;;;;2.17;1.60;;;;;;;4.21;40.34;99401.22;3363734;29;20105;-77